Accueil
METAR-TAF:

METAR-TAF

Aéroports :

Shageluk, Alaska, États-Unis

latitude: 62-41-32N, longitude: 159-34-09W, altitude: 24 m

Observation

Le bulletin a été fait il y a 2 heures et 49 minutes, à 21:56 UTC
Vent 4 kt de sud-ouest
Température 21°C
Humidité 53%
Pression 1012 hPa
Visibilité: 4.0 km
Quelques nuages à une hauteur de 3900 ft
brume sèche

METAR: PAHX 102156Z AUTO 23004KT 2 1/2SM HZ FEW039 21/11 A2988 RMK AO2 SLP118 T02060111 PWINO $

Heure: 16:45 (00:45 UTC)


TAF: absent

Observations et prévisions météorologiques de plus de 4000 aéroports (messages METAR et TAF).

Les stations disponibles sont représentées par des disques jaunes et rouges sur la carte.

Passer la souris dessus pour voir le nom de la station.

Cliquer dessus pour voir les observations et prévisions météorologiques.

Pour changer de carte: cliquez sur les boutons verts avec une croix noire pour zoomer, sur le bouton vert avec un tiret pour effectuer un zoom arrière, ou sur les flèches vertes pour les cartes adjacentes.


METAR-TAF: